Historical Weather Data
Okotoks
Hwy 2A and Milligan Dr

Date
ET inches
Rain inches
Temperature °C
Humidity
Avg
Wind kmh
Avg
Solar Wm2
Avg
High
Avg
Low
08/01/2020 0.19 0.00 27.8 20.6 14.2 66 11.0 239
08/02/2020 0.22 0.00 29.7 22.5 16.1 55 9.0 287
08/03/2020 0.18 0.00 29.5 18.3 9.9 62 8.1 228
08/04/2020 0.21 0.00 27.1 17.0 6.8 59 6.8 296
08/05/2020 0.24 0.00 29.3 19.3 7.9 56 9.4 293
08/06/2020 0.20 0.00 29.0 18.8 7.6 51 8.8 230
08/07/2020 0.15 0.10 20.8 14.0 7.4 62 10.2 235
08/08/2020 0.16 0.00 22.1 13.6 6.3 61 8.1 220
08/09/2020 0.17 0.00 22.1 11.8 1.2 58 5.5 292
08/10/2020 0.19 0.00 27.2 15.6 4.2 51 6.8 267
08/11/2020 0.16 0.00 23.5 14.9 7.2 67 9.5 235
08/12/2020 0.15 0.00 19.6 13.5 6.7 65 8.6 253
08/13/2020 0.14 0.00 22.6 12.3 1.7 59 5.3 228
08/14/2020 0.17 0.00 22.9 13.1 1.6 54 6.5 250
08/15/2020 0.18 0.00 28.7 17.0 6.3 56 5.6 265
08/16/2020 0.22 0.00 31.3 19.0 4.9 50 7.4 278
08/17/2020 0.23 0.00 32.6 22.4 13.3 41 9.8 231
08/18/2020 0.23 0.00 32.9 22.7 11.1 45 7.8 264
08/19/2020 0.19 0.00 30.6 19.6 9.7 52 9.6 250
08/20/2020 0.14 0.00 27.6 18.9 10.2 63 7.2 197
08/21/2020 0.17 0.00 29.4 17.4 6.1 58 7.0 236
08/22/2020 0.21 0.00 25.2 18.6 8.2 40 9.3 254
08/23/2020 0.15 0.00 25.6 14.0 3.9 59 6.5 212
08/24/2020 0.19 0.00 30.0 15.6 3.4 57 8.6 248
08/25/2020 0.17 0.11 25.3 16.0 8.2 57 7.7 243
08/26/2020 0.17 0.00 24.9 14.9 4.6 60 5.8 251
08/27/2020 0.14 0.00 22.0 13.6 7.5 64 7.4 222
08/28/2020 0.17 0.00 27.1 15.5 5.4 55 6.1 239
08/29/2020 0.11 0.07 14.6 10.0 5.8 69 9.7 179
08/30/2020 0.14 0.03 19.7 11.0 3.7 58 7.1 230
08/31/2020 0.14 0.00 21.2 11.4 1.8 55 6.8 221